Hillsboro, New Hampshire
Current Conditions -  °F | °C
As of 11:51 AM on Thursday 23 Oct 2014 (Local Time) from KCON Reporting Station
Light Rain Light Rain  
Wind Chill: 44°   Ceiling: 1600
Heat Index: 49°   Visibility: 3mi
Dew Point: 49°   Wind: 14mph
Humidity: 100%   Direction: 10°N
Pressure: 29.75"   Gusts: 22mph
Location:  43.12°N, 71.9°W
Report Text: KCON 231551Z AUTO 01012G19KT 3SM -RA BR BKN016 OVC022 09/09 A2975 RMK AO2 SLP077 P0010 T00940094
Loading
Personal Weather Stations






























Interactive Weather Map
Tropical Storm Tracking
New forecast layout! Learn more

10-Day Weather Forecast

Advertisements
Track Severe Weather on mobile